sensor_id;sensor_type;location;lat;lon;timestamp;pressure;altitude;pressure_sealevel;temperature;humidity
68077;BME280;54866;53.458;14.540;2023-04-28T00:01:21;101125.38;;;5.80;58.79
68077;BME280;54866;53.458;14.540;2023-04-28T00:03:50;101124.64;;;5.74;58.73
68077;BME280;54866;53.458;14.540;2023-04-28T00:06:20;101122.09;;;5.65;58.47
68077;BME280;54866;53.458;14.540;2023-04-28T00:08:50;101126.01;;;5.61;58.37
68077;BME280;54866;53.458;14.540;2023-04-28T00:11:20;101124.88;;;5.55;58.51
68077;BME280;54866;53.458;14.540;2023-04-28T00:13:49;101126.17;;;5.50;58.78
68077;BME280;54866;53.458;14.540;2023-04-28T00:16:19;101120.71;;;5.44;58.93
68077;BME280;54866;53.458;14.540;2023-04-28T00:18:48;101117.69;;;5.38;59.27
68077;BME280;54866;53.458;14.540;2023-04-28T00:21:18;101116.98;;;5.35;59.29
68077;BME280;54866;53.458;14.540;2023-04-28T00:23:48;101117.34;;;5.32;59.09
68077;BME280;54866;53.458;14.540;2023-04-28T00:26:17;101113.25;;;5.29;59.37
68077;BME280;54866;53.458;14.540;2023-04-28T00:28:47;101115.68;;;5.27;59.47
68077;BME280;54866;53.458;14.540;2023-04-28T00:31:17;101115.59;;;5.25;59.79
68077;BME280;54866;53.458;14.540;2023-04-28T00:33:46;101110.80;;;5.23;59.71
68077;BME280;54866;53.458;14.540;2023-04-28T00:36:16;101110.56;;;5.20;60.03
68077;BME280;54866;53.458;14.540;2023-04-28T00:38:45;101110.64;;;5.19;60.06
68077;BME280;54866;53.458;14.540;2023-04-28T00:41:15;101109.00;;;5.16;60.15
68077;BME280;54866;53.458;14.540;2023-04-28T00:43:48;101109.63;;;5.14;59.96
68077;BME280;54866;53.458;14.540;2023-04-28T00:46:21;101104.61;;;5.13;59.28
68077;BME280;54866;53.458;14.540;2023-04-28T00:48:54;101103.80;;;5.12;58.50
68077;BME280;54866;53.458;14.540;2023-04-28T00:51:24;101104.92;;;5.10;58.53
68077;BME280;54866;53.458;14.540;2023-04-28T00:53:55;101106.73;;;5.09;58.54
68077;BME280;54866;53.458;14.540;2023-04-28T00:56:25;101103.66;;;5.08;58.11
68077;BME280;54866;53.458;14.540;2023-04-28T00:58:55;101100.21;;;5.07;57.42
68077;BME280;54866;53.458;14.540;2023-04-28T01:01:24;101100.70;;;5.07;56.97
68077;BME280;54866;53.458;14.540;2023-04-28T01:03:56;101100.05;;;5.10;56.81
68077;BME280;54866;53.458;14.540;2023-04-28T01:06:27;101099.23;;;5.16;56.70
68077;BME280;54866;53.458;14.540;2023-04-28T01:08:58;101097.48;;;5.24;56.48
68077;BME280;54866;53.458;14.540;2023-04-28T01:11:27;101098.56;;;5.30;56.47
68077;BME280;54866;53.458;14.540;2023-04-28T01:13:57;101095.89;;;5.34;56.01
68077;BME280;54866;53.458;14.540;2023-04-28T01:16:27;101099.35;;;5.38;55.53
68077;BME280;54866;53.458;14.540;2023-04-28T01:18:57;101095.08;;;5.40;55.77
68077;BME280;54866;53.458;14.540;2023-04-28T01:21:29;101097.40;;;5.42;56.00
68077;BME280;54866;53.458;14.540;2023-04-28T01:24:00;101098.08;;;5.46;56.21
68077;BME280;54866;53.458;14.540;2023-04-28T01:26:29;101095.39;;;5.48;57.00
68077;BME280;54866;53.458;14.540;2023-04-28T01:28:59;101098.30;;;5.49;57.20
68077;BME280;54866;53.458;14.540;2023-04-28T01:31:29;101094.41;;;5.50;57.14
68077;BME280;54866;53.458;14.540;2023-04-28T01:33:59;101093.13;;;5.51;57.27
68077;BME280;54866;53.458;14.540;2023-04-28T01:36:28;101089.26;;;5.51;57.39
68077;BME280;54866;53.458;14.540;2023-04-28T01:38:59;101092.95;;;5.51;57.21
68077;BME280;54866;53.458;14.540;2023-04-28T01:41:28;101091.77;;;5.50;57.01
68077;BME280;54866;53.458;14.540;2023-04-28T01:43:58;101088.46;;;5.50;56.83
68077;BME280;54866;53.458;14.540;2023-04-28T01:46:28;101086.84;;;5.47;56.90
68077;BME280;54866;53.458;14.540;2023-04-28T01:48:57;101088.48;;;5.46;57.14
68077;BME280;54866;53.458;14.540;2023-04-28T01:51:27;101087.09;;;5.42;57.54
68077;BME280;54866;53.458;14.540;2023-04-28T01:53:57;101088.57;;;5.41;57.85
68077;BME280;54866;53.458;14.540;2023-04-28T01:56:26;101087.34;;;5.37;58.19
68077;BME280;54866;53.458;14.540;2023-04-28T01:58:56;101084.91;;;5.33;58.46
68077;BME280;54866;53.458;14.540;2023-04-28T02:01:25;101084.46;;;5.29;59.12
68077;BME280;54866;53.458;14.540;2023-04-28T02:03:55;101085.91;;;5.24;59.85
68077;BME280;54866;53.458;14.540;2023-04-28T02:06:25;101087.16;;;5.20;60.39
68077;BME280;54866;53.458;14.540;2023-04-28T02:08:55;101083.71;;;5.15;61.00
68077;BME280;54866;53.458;14.540;2023-04-28T02:11:25;101079.73;;;5.11;61.56
68077;BME280;54866;53.458;14.540;2023-04-28T02:13:54;101080.99;;;5.07;61.94
68077;BME280;54866;53.458;14.540;2023-04-28T02:16:24;101080.86;;;5.03;62.53
68077;BME280;54866;53.458;14.540;2023-04-28T02:18:53;101081.41;;;4.98;63.36
68077;BME280;54866;53.458;14.540;2023-04-28T02:21:23;101083.25;;;4.93;63.93
68077;BME280;54866;53.458;14.540;2023-04-28T02:23:53;101083.94;;;4.86;64.63
68077;BME280;54866;53.458;14.540;2023-04-28T02:26:23;101081.27;;;4.79;65.25
68077;BME280;54866;53.458;14.540;2023-04-28T02:28:53;101081.74;;;4.74;65.94
68077;BME280;54866;53.458;14.540;2023-04-28T02:31:22;101082.38;;;4.68;66.47
68077;BME280;54866;53.458;14.540;2023-04-28T02:33:52;101080.92;;;4.62;67.20
68077;BME280;54866;53.458;14.540;2023-04-28T02:36:22;101086.67;;;4.58;67.59
68077;BME280;54866;53.458;14.540;2023-04-28T02:38:52;101087.19;;;4.55;67.93
68077;BME280;54866;53.458;14.540;2023-04-28T02:41:21;101084.96;;;4.50;68.30
68077;BME280;54866;53.458;14.540;2023-04-28T02:43:51;101086.82;;;4.47;68.64
68077;BME280;54866;53.458;14.540;2023-04-28T02:46:21;101084.02;;;4.44;68.66
68077;BME280;54866;53.458;14.540;2023-04-28T02:48:50;101078.58;;;4.41;68.56
68077;BME280;54866;53.458;14.540;2023-04-28T02:51:20;101085.57;;;4.37;68.66
68077;BME280;54866;53.458;14.540;2023-04-28T02:53:49;101079.96;;;4.34;68.98
68077;BME280;54866;53.458;14.540;2023-04-28T02:56:19;101079.92;;;4.31;68.93
68077;BME280;54866;53.458;14.540;2023-04-28T02:58:48;101076.95;;;4.27;69.01
68077;BME280;54866;53.458;14.540;2023-04-28T03:01:18;101076.38;;;4.24;69.32
68077;BME280;54866;53.458;14.540;2023-04-28T03:03:47;101075.19;;;4.24;69.47
68077;BME280;54866;53.458;14.540;2023-04-28T03:06:17;101076.58;;;4.24;69.42
68077;BME280;54866;53.458;14.540;2023-04-28T03:08:47;101074.36;;;4.22;69.19
68077;BME280;54866;53.458;14.540;2023-04-28T03:11:17;101074.56;;;4.22;68.80
68077;BME280;54866;53.458;14.540;2023-04-28T03:13:46;101073.92;;;4.21;68.80
68077;BME280;54866;53.458;14.540;2023-04-28T03:16:16;101072.81;;;4.18;68.90
68077;BME280;54866;53.458;14.540;2023-04-28T03:18:45;101070.64;;;4.16;68.97
68077;BME280;54866;53.458;14.540;2023-04-28T03:21:15;101068.62;;;4.14;69.61
68077;BME280;54866;53.458;14.540;2023-04-28T03:23:44;101071.15;;;4.12;69.90
68077;BME280;54866;53.458;14.540;2023-04-28T03:26:14;101067.80;;;4.10;70.26
68077;BME280;54866;53.458;14.540;2023-04-28T03:28:43;101065.73;;;4.09;71.14
68077;BME280;54866;53.458;14.540;2023-04-28T03:31:13;101064.50;;;4.09;70.88
68077;BME280;54866;53.458;14.540;2023-04-28T03:33:42;101064.30;;;4.10;70.49
68077;BME280;54866;53.458;14.540;2023-04-28T03:36:14;101060.82;;;4.10;70.50
68077;BME280;54866;53.458;14.540;2023-04-28T03:38:44;101058.59;;;4.09;70.36
68077;BME280;54866;53.458;14.540;2023-04-28T03:41:13;101060.59;;;4.11;69.23
68077;BME280;54866;53.458;14.540;2023-04-28T03:43:43;101063.18;;;4.15;68.67
68077;BME280;54866;53.458;14.540;2023-04-28T03:46:13;101064.10;;;4.19;68.29
68077;BME280;54866;53.458;14.540;2023-04-28T03:48:42;101059.91;;;4.22;67.47
68077;BME280;54866;53.458;14.540;2023-04-28T03:51:13;101064.98;;;4.29;67.15
68077;BME280;54866;53.458;14.540;2023-04-28T03:53:43;101064.25;;;4.34;67.00
68077;BME280;54866;53.458;14.540;2023-04-28T03:56:12;101064.52;;;4.40;66.77
68077;BME280;54866;53.458;14.540;2023-04-28T03:58:42;101064.81;;;4.44;66.56
68077;BME280;54866;53.458;14.540;2023-04-28T04:01:11;101060.77;;;4.48;66.48
68077;BME280;54866;53.458;14.540;2023-04-28T04:03:41;101060.45;;;4.52;66.28
68077;BME280;54866;53.458;14.540;2023-04-28T04:06:10;101058.45;;;4.53;66.01
68077;BME280;54866;53.458;14.540;2023-04-28T04:08:40;101061.71;;;4.54;65.81
68077;BME280;54866;53.458;14.540;2023-04-28T04:11:10;101064.55;;;4.57;65.62
68077;BME280;54866;53.458;14.540;2023-04-28T04:13:39;101062.02;;;4.59;64.95
68077;BME280;54866;53.458;14.540;2023-04-28T04:16:09;101058.88;;;4.66;64.25
68077;BME280;54866;53.458;14.540;2023-04-28T04:18:39;101061.00;;;4.73;63.44
68077;BME280;54866;53.458;14.540;2023-04-28T04:21:08;101060.42;;;4.81;62.61
68077;BME280;54866;53.458;14.540;2023-04-28T04:23:38;101057.87;;;4.88;62.24
68077;BME280;54866;53.458;14.540;2023-04-28T04:26:08;101056.42;;;4.95;61.77
68077;BME280;54866;53.458;14.540;2023-04-28T04:28:37;101054.02;;;5.02;60.91
68077;BME280;54866;53.458;14.540;2023-04-28T04:31:07;101055.26;;;5.12;60.59
68077;BME280;54866;53.458;14.540;2023-04-28T04:33:36;101055.55;;;5.20;60.22
68077;BME280;54866;53.458;14.540;2023-04-28T04:36:07;101056.33;;;5.29;60.19
68077;BME280;54866;53.458;14.540;2023-04-28T04:38:37;101057.10;;;5.37;60.19
68077;BME280;54866;53.458;14.540;2023-04-28T04:41:06;101056.73;;;5.45;60.54
68077;BME280;54866;53.458;14.540;2023-04-28T04:43:36;101056.47;;;5.53;60.92
68077;BME280;54866;53.458;14.540;2023-04-28T04:46:06;101056.50;;;5.60;61.09
68077;BME280;54866;53.458;14.540;2023-04-28T04:48:35;101055.04;;;5.64;61.26
68077;BME280;54866;53.458;14.540;2023-04-28T04:51:05;101055.09;;;5.70;61.54
68077;BME280;54866;53.458;14.540;2023-04-28T04:53:35;101051.31;;;5.79;61.61
68077;BME280;54866;53.458;14.540;2023-04-28T04:56:05;101056.27;;;5.87;61.66
68077;BME280;54866;53.458;14.540;2023-04-28T04:58:35;101056.16;;;5.94;62.16
68077;BME280;54866;53.458;14.540;2023-04-28T05:01:05;101053.35;;;6.00;62.43
68077;BME280;54866;53.458;14.540;2023-04-28T05:03:34;101052.73;;;6.05;62.90
68077;BME280;54866;53.458;14.540;2023-04-28T05:06:04;101051.39;;;6.07;63.22
68077;BME280;54866;53.458;14.540;2023-04-28T05:08:34;101052.13;;;6.13;63.98
68077;BME280;54866;53.458;14.540;2023-04-28T05:11:03;101053.44;;;6.21;64.20
68077;BME280;54866;53.458;14.540;2023-04-28T05:13:33;101052.95;;;6.30;64.23
68077;BME280;54866;53.458;14.540;2023-04-28T05:16:03;101049.25;;;6.40;64.36
68077;BME280;54866;53.458;14.540;2023-04-28T05:18:33;101048.39;;;6.49;64.40
68077;BME280;54866;53.458;14.540;2023-04-28T05:21:03;101044.20;;;6.68;64.47
68077;BME280;54866;53.458;14.540;2023-04-28T05:23:32;101033.42;;;7.73;63.66
68077;BME280;54866;53.458;14.540;2023-04-28T05:26:02;101031.55;;;9.96;59.43
68077;BME280;54866;53.458;14.540;2023-04-28T05:28:32;101028.36;;;11.96;52.89
68077;BME280;54866;53.458;14.540;2023-04-28T05:31:01;101020.58;;;13.66;49.55
68077;BME280;54866;53.458;14.540;2023-04-28T05:33:31;101015.54;;;15.29;46.05
68077;BME280;54866;53.458;14.540;2023-04-28T05:36:00;101011.44;;;16.42;41.48
68077;BME280;54866;53.458;14.540;2023-04-28T05:38:30;101009.66;;;17.45;40.20
68077;BME280;54866;53.458;14.540;2023-04-28T06:11:21;100976.10;;;24.58;25.62
68077;BME280;54866;53.458;14.540;2023-04-28T06:13:54;100980.92;;;25.29;23.23
68077;BME280;54866;53.458;14.540;2023-04-28T06:16:24;100976.20;;;25.46;22.75
68077;BME280;54866;53.458;14.540;2023-04-28T06:18:54;100980.52;;;25.57;22.72
68077;BME280;54866;53.458;14.540;2023-04-28T06:21:24;100971.17;;;25.56;22.28
68077;BME280;54866;53.458;14.540;2023-04-28T06:23:54;100977.16;;;25.70;22.34
68077;BME280;54866;53.458;14.540;2023-04-28T06:26:24;100980.44;;;26.08;21.98
68077;BME280;54866;53.458;14.540;2023-04-28T06:28:54;100973.82;;;26.36;21.73
68077;BME280;54866;53.458;14.540;2023-04-28T06:31:24;100973.52;;;26.49;21.55
68077;BME280;54866;53.458;14.540;2023-04-28T06:33:54;100973.83;;;25.32;21.50
68077;BME280;54866;53.458;14.540;2023-04-28T06:36:24;100976.95;;;24.67;21.94
68077;BME280;54866;53.458;14.540;2023-04-28T06:38:55;100976.73;;;24.63;21.57
68077;BME280;54866;53.458;14.540;2023-04-28T06:41:26;100978.29;;;24.68;20.74
68077;BME280;54866;53.458;14.540;2023-04-28T06:43:56;100980.20;;;24.37;21.46
68077;BME280;54866;53.458;14.540;2023-04-28T06:46:26;100973.79;;;24.65;21.94
68077;BME280;54866;53.458;14.540;2023-04-28T06:48:55;100974.08;;;24.97;21.36
68077;BME280;54866;53.458;14.540;2023-04-28T06:51:25;100971.75;;;25.44;20.98
68077;BME280;54866;53.458;14.540;2023-04-28T06:53:56;100969.49;;;25.91;21.00
68077;BME280;54866;53.458;14.540;2023-04-28T06:56:26;100969.66;;;26.64;20.86
68077;BME280;54866;53.458;14.540;2023-04-28T06:58:58;100958.96;;;27.15;20.42
68077;BME280;54866;53.458;14.540;2023-04-28T07:01:28;100966.70;;;27.33;19.55
68077;BME280;54866;53.458;14.540;2023-04-28T07:03:58;100964.22;;;27.02;19.34
68077;BME280;54866;53.458;14.540;2023-04-28T07:06:28;100973.76;;;25.65;20.68
68077;BME280;54866;53.458;14.540;2023-04-28T07:08:59;100970.33;;;23.55;21.31
68077;BME280;54866;53.458;14.540;2023-04-28T07:11:29;100970.99;;;21.63;22.97
68077;BME280;54866;53.458;14.540;2023-04-28T07:14:00;100974.55;;;19.78;24.66
68077;BME280;54866;53.458;14.540;2023-04-28T07:16:31;100977.81;;;18.60;26.44
68077;BME280;54866;53.458;14.540;2023-04-28T07:19:01;100973.27;;;17.71;27.85
68077;BME280;54866;53.458;14.540;2023-04-28T07:21:31;100975.13;;;16.92;27.88
68077;BME280;54866;53.458;14.540;2023-04-28T07:24:01;100965.11;;;16.25;28.72
68077;BME280;54866;53.458;14.540;2023-04-28T07:26:31;100961.12;;;15.44;29.91
68077;BME280;54866;53.458;14.540;2023-04-28T07:29:01;100963.14;;;14.69;30.96
68077;BME280;54866;53.458;14.540;2023-04-28T07:31:31;100968.36;;;14.22;32.15
68077;BME280;54866;53.458;14.540;2023-04-28T07:34:01;100969.07;;;13.87;32.91
68077;BME280;54866;53.458;14.540;2023-04-28T07:36:31;100957.27;;;13.76;33.31
68077;BME280;54866;53.458;14.540;2023-04-28T07:39:01;100956.68;;;13.58;33.29
68077;BME280;54866;53.458;14.540;2023-04-28T07:41:32;100953.27;;;13.54;33.00
68077;BME280;54866;53.458;14.540;2023-04-28T07:44:04;100948.63;;;13.51;33.21
68077;BME280;54866;53.458;14.540;2023-04-28T07:46:35;100953.45;;;13.65;33.24
68077;BME280;54866;53.458;14.540;2023-04-28T07:49:05;100948.36;;;13.83;32.85
68077;BME280;54866;53.458;14.540;2023-04-28T07:51:35;100942.63;;;13.99;30.92
68077;BME280;54866;53.458;14.540;2023-04-28T07:54:05;100953.55;;;14.27;30.65
68077;BME280;54866;53.458;14.540;2023-04-28T07:56:36;100938.03;;;15.01;28.72
68077;BME280;54866;53.458;14.540;2023-04-28T07:59:06;100941.41;;;15.27;28.64
68077;BME280;54866;53.458;14.540;2023-04-28T08:01:35;100946.89;;;15.69;28.10
68077;BME280;54866;53.458;14.540;2023-04-28T08:04:05;100939.63;;;15.53;27.52
68077;BME280;54866;53.458;14.540;2023-04-28T08:06:35;100939.97;;;14.87;27.98
68077;BME280;54866;53.458;14.540;2023-04-28T08:09:06;100948.30;;;14.68;28.49
68077;BME280;54866;53.458;14.540;2023-04-28T08:11:36;100941.41;;;14.70;28.36
68077;BME280;54866;53.458;14.540;2023-04-28T08:14:06;100945.44;;;14.80;27.83
68077;BME280;54866;53.458;14.540;2023-04-28T08:16:35;100934.98;;;14.88;27.68
68077;BME280;54866;53.458;14.540;2023-04-28T08:19:08;100930.04;;;15.29;26.75
68077;BME280;54866;53.458;14.540;2023-04-28T08:21:38;100938.52;;;15.67;25.40
68077;BME280;54866;53.458;14.540;2023-04-28T08:24:08;100923.61;;;16.34;25.25
68077;BME280;54866;53.458;14.540;2023-04-28T08:26:38;100929.54;;;17.15;24.54
68077;BME280;54866;53.458;14.540;2023-04-28T08:29:08;100922.13;;;17.74;23.95
68077;BME280;54866;53.458;14.540;2023-04-28T08:31:38;100923.77;;;18.50;22.62
68077;BME280;54866;53.458;14.540;2023-04-28T08:34:07;100924.34;;;19.13;21.95
68077;BME280;54866;53.458;14.540;2023-04-28T08:36:37;100916.27;;;19.48;20.96
68077;BME280;54866;53.458;14.540;2023-04-28T08:39:07;100917.91;;;19.86;21.10
68077;BME280;54866;53.458;14.540;2023-04-28T08:41:38;100917.36;;;20.07;20.61
68077;BME280;54866;53.458;14.540;2023-04-28T08:44:09;100918.14;;;20.29;20.56
68077;BME280;54866;53.458;14.540;2023-04-28T08:46:41;100924.23;;;20.07;20.95
68077;BME280;54866;53.458;14.540;2023-04-28T08:49:15;100917.52;;;20.48;20.87
68077;BME280;54866;53.458;14.540;2023-04-28T08:51:45;100904.28;;;20.95;20.21
68077;BME280;54866;53.458;14.540;2023-04-28T08:54:16;100904.56;;;21.58;20.06
68077;BME280;54866;53.458;14.540;2023-04-28T08:56:48;100900.70;;;21.80;20.31
68077;BME280;54866;53.458;14.540;2023-04-28T08:59:18;100891.83;;;21.54;20.19
68077;BME280;54866;53.458;14.540;2023-04-28T09:01:50;100900.37;;;21.47;20.41
68077;BME280;54866;53.458;14.540;2023-04-28T09:04:20;100889.82;;;21.32;20.58
68077;BME280;54866;53.458;14.540;2023-04-28T09:06:50;100894.98;;;21.70;20.43
68077;BME280;54866;53.458;14.540;2023-04-28T09:09:22;100882.40;;;21.55;20.29
68077;BME280;54866;53.458;14.540;2023-04-28T09:11:55;100884.63;;;21.22;20.13
68077;BME280;54866;53.458;14.540;2023-04-28T09:14:26;100899.02;;;21.27;20.45
68077;BME280;54866;53.458;14.540;2023-04-28T09:16:57;100892.73;;;22.01;19.80
68077;BME280;54866;53.458;14.540;2023-04-28T09:19:33;100874.57;;;22.07;18.44
68077;BME280;54866;53.458;14.540;2023-04-28T09:22:04;100871.59;;;21.77;19.14
68077;BME280;54866;53.458;14.540;2023-04-28T09:24:36;100864.58;;;20.89;19.62
68077;BME280;54866;53.458;14.540;2023-04-28T09:27:09;100877.38;;;21.30;19.22
68077;BME280;54866;53.458;14.540;2023-04-28T09:29:50;100866.88;;;20.66;19.37
68077;BME280;54866;53.458;14.540;2023-04-28T09:32:21;100860.36;;;20.58;19.68
68077;BME280;54866;53.458;14.540;2023-04-28T09:34:53;100865.74;;;20.73;19.32
68077;BME280;54866;53.458;14.540;2023-04-28T09:37:25;100858.89;;;20.49;19.17
68077;BME280;54866;53.458;14.540;2023-04-28T09:40:02;100846.81;;;20.55;19.36
68077;BME280;54866;53.458;14.540;2023-04-28T09:42:37;100848.73;;;19.86;19.85
68077;BME280;54866;53.458;14.540;2023-04-28T09:45:09;100846.30;;;19.71;20.17
68077;BME280;54866;53.458;14.540;2023-04-28T09:47:41;100861.01;;;19.73;20.38
68077;BME280;54866;53.458;14.540;2023-04-28T09:50:12;100861.23;;;19.39;20.08
68077;BME280;54866;53.458;14.540;2023-04-28T09:52:42;100854.98;;;19.48;20.32
68077;BME280;54866;53.458;14.540;2023-04-28T09:55:13;100850.31;;;19.63;20.41
68077;BME280;54866;53.458;14.540;2023-04-28T09:57:45;100856.43;;;19.51;20.13
68077;BME280;54866;53.458;14.540;2023-04-28T10:00:19;100854.29;;;19.65;20.04
68077;BME280;54866;53.458;14.540;2023-04-28T10:02:51;100856.42;;;19.81;20.48
68077;BME280;54866;53.458;14.540;2023-04-28T10:05:22;100851.39;;;19.42;20.36
68077;BME280;54866;53.458;14.540;2023-04-28T10:07:52;100849.25;;;19.69;20.49
68077;BME280;54866;53.458;14.540;2023-04-28T11:40:12;100752.88;;;17.73;21.21
68077;BME280;54866;53.458;14.540;2023-04-28T11:42:48;100752.76;;;17.77;22.02
68077;BME280;54866;53.458;14.540;2023-04-28T11:45:18;100746.60;;;17.84;21.88
68077;BME280;54866;53.458;14.540;2023-04-28T11:47:48;100742.14;;;17.55;21.97
68077;BME280;54866;53.458;14.540;2023-04-28T11:50:18;100752.16;;;17.17;22.20
68077;BME280;54866;53.458;14.540;2023-04-28T11:53:03;100745.17;;;16.85;22.78
68077;BME280;54866;53.458;14.540;2023-04-28T11:55:33;100738.88;;;16.67;23.32
68077;BME280;54866;53.458;14.540;2023-04-28T11:58:21;100731.37;;;16.60;22.86
68077;BME280;54866;53.458;14.540;2023-04-28T12:01:09;100730.62;;;16.71;22.97
68077;BME280;54866;53.458;14.540;2023-04-28T12:03:46;100727.83;;;17.06;22.97
68077;BME280;54866;53.458;14.540;2023-04-28T12:06:18;100729.83;;;17.16;22.96
68077;BME280;54866;53.458;14.540;2023-04-28T12:08:48;100725.69;;;17.52;22.40
68077;BME280;54866;53.458;14.540;2023-04-28T12:11:18;100722.38;;;17.61;21.76
68077;BME280;54866;53.458;14.540;2023-04-28T12:14:08;100725.14;;;17.90;22.09
68077;BME280;54866;53.458;14.540;2023-04-28T12:16:40;100712.80;;;17.81;21.74
68077;BME280;54866;53.458;14.540;2023-04-28T12:19:13;100717.16;;;17.70;21.43
68077;BME280;54866;53.458;14.540;2023-04-28T12:21:43;100717.02;;;17.80;21.98
68077;BME280;54866;53.458;14.540;2023-04-28T12:24:18;100707.45;;;17.84;21.75
68077;BME280;54866;53.458;14.540;2023-04-28T12:26:48;100702.96;;;17.81;21.94
68077;BME280;54866;53.458;14.540;2023-04-28T12:29:35;100693.75;;;17.97;21.44
68077;BME280;54866;53.458;14.540;2023-04-28T12:32:09;100696.38;;;18.21;21.73
68077;BME280;54866;53.458;14.540;2023-04-28T12:34:40;100693.41;;;18.53;21.78
68077;BME280;54866;53.458;14.540;2023-04-28T12:37:10;100696.24;;;18.39;21.46
68077;BME280;54866;53.458;14.540;2023-04-28T12:39:41;100694.16;;;18.33;21.23
68077;BME280;54866;53.458;14.540;2023-04-28T12:42:11;100684.73;;;18.14;21.84
68077;BME280;54866;53.458;14.540;2023-04-28T12:44:41;100687.35;;;18.21;22.08
68077;BME280;54866;53.458;14.540;2023-04-28T12:47:10;100686.02;;;18.12;21.77
68077;BME280;54866;53.458;14.540;2023-04-28T12:49:40;100679.14;;;18.35;22.03
68077;BME280;54866;53.458;14.540;2023-04-28T12:52:10;100666.41;;;18.55;22.26
68077;BME280;54866;53.458;14.540;2023-04-28T12:54:39;100670.33;;;18.49;22.36
68077;BME280;54866;53.458;14.540;2023-04-28T12:57:14;100668.48;;;18.38;22.62
68077;BME280;54866;53.458;14.540;2023-04-28T12:59:45;100663.08;;;18.15;23.02
68077;BME280;54866;53.458;14.540;2023-04-28T13:02:15;100660.84;;;18.17;23.74
68077;BME280;54866;53.458;14.540;2023-04-28T13:04:45;100658.81;;;18.08;23.90
68077;BME280;54866;53.458;14.540;2023-04-28T13:07:15;100659.91;;;17.70;23.83
68077;BME280;54866;53.458;14.540;2023-04-28T13:09:44;100660.92;;;17.67;24.13
68077;BME280;54866;53.458;14.540;2023-04-28T13:12:14;100650.02;;;17.63;24.15
68077;BME280;54866;53.458;14.540;2023-04-28T13:14:43;100645.43;;;17.54;24.57
68077;BME280;54866;53.458;14.540;2023-04-28T13:17:13;100638.64;;;17.53;24.53
68077;BME280;54866;53.458;14.540;2023-04-28T13:19:43;100637.60;;;17.64;25.26
68077;BME280;54866;53.458;14.540;2023-04-28T13:22:13;100628.16;;;17.84;25.11
68077;BME280;54866;53.458;14.540;2023-04-28T13:24:42;100637.66;;;17.66;24.99
68077;BME280;54866;53.458;14.540;2023-04-28T13:27:12;100632.82;;;17.42;25.35
68077;BME280;54866;53.458;14.540;2023-04-28T13:29:42;100629.84;;;17.26;25.60
68077;BME280;54866;53.458;14.540;2023-04-28T13:32:11;100632.42;;;17.20;25.77
68077;BME280;54866;53.458;14.540;2023-04-28T13:34:41;100627.45;;;16.83;25.78
68077;BME280;54866;53.458;14.540;2023-04-28T13:37:11;100626.97;;;16.69;26.11
68077;BME280;54866;53.458;14.540;2023-04-28T13:39:40;100628.83;;;16.72;26.54
68077;BME280;54866;53.458;14.540;2023-04-28T13:42:10;100619.50;;;16.79;26.48
68077;BME280;54866;53.458;14.540;2023-04-28T13:44:41;100621.16;;;16.83;26.57
68077;BME280;54866;53.458;14.540;2023-04-28T13:47:10;100612.98;;;16.77;26.61
68077;BME280;54866;53.458;14.540;2023-04-28T13:49:40;100608.35;;;16.73;26.99
68077;BME280;54866;53.458;14.540;2023-04-28T13:52:10;100604.91;;;16.84;27.05
68077;BME280;54866;53.458;14.540;2023-04-28T13:54:41;100600.36;;;16.92;26.78
68077;BME280;54866;53.458;14.540;2023-04-28T13:57:12;100587.80;;;16.91;26.98
68077;BME280;54866;53.458;14.540;2023-04-28T13:59:41;100598.15;;;16.79;27.29
68077;BME280;54866;53.458;14.540;2023-04-28T14:02:11;100591.06;;;16.75;27.47
68077;BME280;54866;53.458;14.540;2023-04-28T14:04:41;100585.27;;;16.79;27.23
68077;BME280;54866;53.458;14.540;2023-04-28T14:07:15;100576.52;;;16.65;27.60
68077;BME280;54866;53.458;14.540;2023-04-28T14:09:45;100576.69;;;16.54;27.95
68077;BME280;54866;53.458;14.540;2023-04-28T14:12:14;100579.14;;;16.60;27.73
68077;BME280;54866;53.458;14.540;2023-04-28T14:14:47;100577.09;;;16.73;27.95
68077;BME280;54866;53.458;14.540;2023-04-28T14:17:16;100573.37;;;16.93;28.12
68077;BME280;54866;53.458;14.540;2023-04-28T14:19:46;100571.09;;;17.09;27.64
68077;BME280;54866;53.458;14.540;2023-04-28T14:22:16;100563.46;;;17.29;27.53
68077;BME280;54866;53.458;14.540;2023-04-28T14:24:45;100560.58;;;17.14;27.60
68077;BME280;54866;53.458;14.540;2023-04-28T14:27:15;100561.42;;;17.01;27.86
68077;BME280;54866;53.458;14.540;2023-04-28T14:29:44;100561.56;;;16.83;28.41
68077;BME280;54866;53.458;14.540;2023-04-28T14:32:15;100556.98;;;16.68;29.11
68077;BME280;54866;53.458;14.540;2023-04-28T14:34:48;100553.13;;;16.64;29.33
68077;BME280;54866;53.458;14.540;2023-04-28T14:37:18;100548.94;;;16.63;29.65
68077;BME280;54866;53.458;14.540;2023-04-28T14:39:48;100548.98;;;16.56;29.61
68077;BME280;54866;53.458;14.540;2023-04-28T14:42:18;100546.38;;;16.53;29.75
68077;BME280;54866;53.458;14.540;2023-04-28T14:44:48;100542.30;;;16.52;29.90
68077;BME280;54866;53.458;14.540;2023-04-28T14:47:18;100537.39;;;16.49;30.03
68077;BME280;54866;53.458;14.540;2023-04-28T14:49:48;100533.49;;;16.44;30.07
68077;BME280;54866;53.458;14.540;2023-04-28T14:52:19;100534.48;;;16.38;30.25
68077;BME280;54866;53.458;14.540;2023-04-28T14:54:50;100528.40;;;16.35;30.55
68077;BME280;54866;53.458;14.540;2023-04-28T14:57:20;100522.71;;;16.36;30.70
68077;BME280;54866;53.458;14.540;2023-04-28T14:59:49;100522.23;;;16.25;30.72
68077;BME280;54866;53.458;14.540;2023-04-28T15:02:20;100524.16;;;16.08;30.86